createdAt,value
2022-12-23T00:01:26.737Z,16.00
2022-12-23T00:03:59.260Z,15.70
2022-12-23T00:06:28.174Z,14.00
2022-12-23T00:08:59.990Z,15.60
2022-12-23T00:11:29.054Z,16.00
2022-12-23T00:14:21.491Z,17.40
2022-12-23T00:16:50.852Z,17.10
2022-12-23T00:19:19.929Z,17.20
2022-12-23T00:21:48.727Z,16.10
2022-12-23T00:24:17.626Z,15.90
2022-12-23T00:26:46.378Z,15.80
2022-12-23T00:29:15.453Z,13.40
2022-12-23T00:31:44.251Z,16.10
2022-12-23T00:34:13.272Z,15.10
2022-12-23T00:36:42.102Z,13.30
2022-12-23T00:39:31.150Z,14.10
2022-12-23T00:42:38.499Z,14.30
2022-12-23T00:45:15.808Z,15.80
2022-12-23T00:48:03.781Z,15.10
2022-12-23T00:50:36.981Z,15.30
2022-12-23T00:53:06.256Z,13.70
2022-12-23T00:55:35.728Z,15.30
2022-12-23T00:58:04.432Z,13.70
2022-12-23T01:00:51.980Z,15.30
2022-12-23T01:03:39.215Z,13.40
2022-12-23T01:06:07.947Z,13.70
2022-12-23T01:08:36.699Z,14.30
2022-12-23T01:11:06.841Z,16.10
2022-12-23T01:13:35.983Z,13.90
2022-12-23T01:16:09.342Z,16.00
2022-12-23T01:18:41.637Z,12.70
2022-12-23T01:21:10.863Z,16.50
2022-12-23T01:23:39.558Z,13.60
2022-12-23T01:26:08.622Z,14.40
2022-12-23T01:28:37.501Z,14.40
2022-12-23T01:31:07.958Z,15.80
2022-12-23T01:33:36.618Z,17.50
2022-12-23T01:36:06.795Z,16.20
2022-12-23T01:38:35.488Z,17.90
2022-12-23T01:41:04.331Z,16.80
2022-12-23T01:43:49.557Z,16.20
2022-12-23T01:46:18.374Z,15.10
2022-12-23T01:48:49.199Z,15.70
2022-12-23T01:51:22.184Z,18.90
2022-12-23T01:53:53.596Z,15.80
2022-12-23T01:56:25.008Z,16.30
2022-12-23T01:58:56.434Z,14.30
2022-12-23T02:01:44.327Z,16.90
2022-12-23T02:04:15.967Z,16.40
2022-12-23T02:07:03.998Z,18.00
2022-12-23T02:09:34.116Z,14.70
2022-12-23T02:12:18.639Z,15.40
2022-12-23T02:15:18.300Z,14.70
2022-12-23T02:17:59.131Z,15.90
2022-12-23T02:20:30.921Z,17.00
2022-12-23T02:23:25.020Z,17.60
2022-12-23T02:25:53.641Z,16.40
2022-12-23T02:28:31.527Z,17.40
2022-12-23T02:31:10.681Z,14.90
2022-12-23T02:33:48.476Z,15.50
2022-12-23T02:36:22.493Z,19.30
2022-12-23T02:38:59.664Z,14.20
2022-12-23T02:41:57.663Z,16.40
2022-12-23T02:44:32.753Z,16.20
2022-12-23T02:47:07.921Z,16.30
2022-12-23T02:49:38.959Z,16.10
2022-12-23T02:52:11.883Z,13.20
2022-12-23T02:57:11.554Z,16.70
2022-12-23T02:59:43.529Z,20.20
2022-12-23T03:02:12.412Z,15.50
2022-12-23T03:04:42.445Z,15.50
2022-12-23T03:07:19.045Z,13.20
2022-12-23T03:10:23.641Z,13.60
2022-12-23T03:12:55.298Z,16.60
2022-12-23T03:15:30.275Z,14.80
2022-12-23T03:17:58.985Z,14.60
2022-12-23T03:20:33.716Z,15.50
2022-12-23T03:23:16.117Z,13.50
2022-12-23T03:25:52.057Z,11.80
2022-12-23T03:28:39.270Z,16.20
2022-12-23T03:31:10.850Z,15.30
2022-12-23T03:33:40.779Z,16.70
2022-12-23T03:36:15.562Z,15.40
2022-12-23T03:38:45.206Z,15.00
2022-12-23T03:41:15.848Z,11.30
2022-12-23T03:43:50.916Z,13.60
2022-12-23T03:46:22.887Z,14.60
2022-12-23T03:48:54.005Z,13.20
2022-12-23T03:51:24.641Z,13.50
2022-12-23T03:54:07.205Z,12.60
2022-12-23T03:56:39.519Z,14.10
2022-12-23T03:59:28.485Z,14.60
2022-12-23T04:01:57.308Z,13.60
2022-12-23T04:04:26.601Z,15.40
2022-12-23T04:06:58.060Z,15.00
2022-12-23T04:09:28.045Z,13.10
2022-12-23T04:11:57.477Z,14.00
2022-12-23T04:14:26.193Z,12.60
2022-12-23T04:16:56.365Z,12.10
2022-12-23T04:19:25.336Z,15.30
2022-12-23T04:21:57.901Z,12.30
2022-12-23T04:24:26.688Z,14.80
2022-12-23T04:26:55.394Z,13.00
2022-12-23T04:29:24.108Z,16.00
2022-12-23T04:31:52.907Z,12.70
2022-12-23T04:34:21.645Z,11.90
2022-12-23T04:36:50.326Z,14.30
2022-12-23T04:39:19.085Z,14.00
2022-12-23T04:41:48.002Z,15.10
2022-12-23T04:44:16.723Z,14.70
2022-12-23T04:46:45.508Z,16.20
2022-12-23T04:49:14.201Z,15.90
2022-12-23T04:51:43.112Z,14.90
2022-12-23T04:54:11.824Z,16.70
2022-12-23T04:56:40.486Z,16.20
2022-12-23T04:59:10.012Z,18.70
2022-12-23T05:01:38.988Z,20.30
2022-12-23T05:04:08.818Z,19.40
2022-12-23T05:06:37.804Z,15.10
2022-12-23T05:09:06.545Z,15.30
2022-12-23T05:11:41.744Z,18.50
2022-12-23T05:14:11.251Z,16.60
2022-12-23T05:16:40.105Z,14.60
2022-12-23T05:19:10.079Z,14.70
2022-12-23T05:21:38.804Z,14.90
2022-12-23T05:24:07.583Z,13.60
2022-12-23T05:26:36.303Z,14.40
2022-12-23T05:29:06.139Z,11.60
2022-12-23T05:31:34.929Z,13.60
2022-12-23T05:34:06.638Z,13.00
2022-12-23T05:36:35.766Z,12.40
2022-12-23T05:39:04.729Z,13.60
2022-12-23T05:41:33.488Z,12.30
2022-12-23T05:44:02.171Z,12.00
2022-12-23T05:46:30.959Z,15.40
2022-12-23T05:48:59.716Z,13.20
2022-12-23T05:51:28.522Z,12.30
2022-12-23T05:53:57.362Z,12.00
2022-12-23T05:56:26.036Z,13.20
2022-12-23T05:58:54.869Z,13.80
2022-12-23T06:01:23.535Z,12.50
2022-12-23T06:03:52.617Z,10.80
2022-12-23T06:06:21.359Z,9.50
2022-12-23T06:08:53.228Z,11.20
2022-12-23T06:11:24.567Z,11.00
2022-12-23T06:13:53.253Z,16.00
2022-12-23T06:16:22.157Z,14.60
2022-12-23T06:18:54.025Z,12.20
2022-12-23T06:21:22.770Z,12.70
2022-12-23T06:23:51.620Z,11.60
2022-12-23T06:26:20.757Z,12.10
2022-12-23T06:28:49.494Z,12.90
2022-12-23T06:31:18.481Z,12.80
2022-12-23T06:33:47.181Z,11.80
2022-12-23T06:36:15.811Z,12.10
2022-12-23T06:38:44.536Z,13.20
2022-12-23T06:41:13.950Z,13.20
2022-12-23T06:43:42.681Z,13.30
2022-12-23T06:46:11.402Z,15.00
2022-12-23T06:48:40.146Z,11.00
2022-12-23T06:51:11.196Z,12.70
2022-12-23T06:53:40.312Z,14.10
2022-12-23T06:56:09.035Z,15.60
2022-12-23T06:58:37.684Z,13.90
2022-12-23T07:01:06.764Z,12.40
2022-12-23T07:03:35.767Z,12.70
2022-12-23T07:06:04.754Z,12.70
2022-12-23T07:08:33.492Z,15.20
2022-12-23T07:11:03.566Z,14.50
2022-12-23T07:13:32.803Z,12.60
2022-12-23T07:16:05.848Z,12.20
2022-12-23T07:18:35.144Z,14.40
2022-12-23T07:21:04.693Z,14.90
2022-12-23T07:23:33.439Z,15.30
2022-12-23T07:26:02.153Z,11.90
2022-12-23T07:28:30.904Z,12.70
2022-12-23T07:30:59.620Z,18.10
2022-12-23T07:33:28.385Z,16.00
2022-12-23T07:36:00.268Z,14.60
2022-12-23T07:38:29.385Z,12.30
2022-12-23T07:40:58.093Z,11.80
2022-12-23T07:43:26.788Z,12.30
2022-12-23T07:45:59.947Z,12.40
2022-12-23T07:48:29.983Z,12.80
2022-12-23T07:51:02.029Z,12.50
2022-12-23T07:53:30.916Z,12.30
2022-12-23T07:55:59.690Z,11.20
2022-12-23T07:58:28.483Z,10.40
2022-12-23T08:01:04.345Z,13.00
2022-12-23T08:03:33.144Z,12.90
2022-12-23T08:06:02.950Z,12.80
2022-12-23T08:08:32.401Z,12.50
2022-12-23T08:11:02.541Z,11.10
2022-12-23T08:13:32.964Z,12.00
2022-12-23T08:16:02.279Z,13.30
2022-12-23T08:18:32.076Z,9.50
2022-12-23T08:21:01.742Z,12.40
2022-12-23T08:23:31.327Z,11.50
2022-12-23T08:26:00.407Z,11.30
2022-12-23T08:28:29.270Z,10.50
2022-12-23T08:31:27.323Z,11.30
2022-12-23T08:33:56.719Z,10.70
2022-12-23T08:36:27.265Z,12.80
2022-12-23T08:38:57.608Z,11.10
2022-12-23T08:41:28.205Z,9.60
2022-12-23T08:43:57.037Z,10.80
2022-12-23T08:46:26.671Z,8.90
2022-12-23T08:48:56.060Z,9.80
2022-12-23T08:51:25.267Z,9.80
2022-12-23T08:54:00.618Z,11.30
2022-12-23T08:56:31.466Z,10.70
2022-12-23T08:59:00.553Z,12.50
2022-12-23T09:01:30.487Z,11.40
2022-12-23T09:04:01.872Z,11.50
2022-12-23T09:06:33.272Z,15.30
2022-12-23T09:09:02.028Z,12.40
2022-12-23T09:11:30.835Z,12.40
2022-12-23T09:14:00.525Z,12.20
2022-12-23T09:16:30.001Z,13.60
2022-12-23T09:18:58.928Z,13.10
2022-12-23T09:21:28.035Z,11.80
2022-12-23T09:23:56.800Z,13.30
2022-12-23T09:26:26.969Z,11.50
2022-12-23T09:28:56.514Z,12.40
2022-12-23T09:31:30.452Z,15.20
2022-12-23T09:34:03.074Z,12.80
2022-12-23T09:36:31.866Z,13.80
2022-12-23T09:39:00.789Z,11.70
2022-12-23T09:41:46.392Z,10.40
2022-12-23T09:44:35.235Z,13.60
2022-12-23T09:47:05.884Z,13.30
2022-12-23T09:49:34.753Z,9.10
2022-12-23T09:52:05.076Z,11.30
2022-12-23T09:54:38.091Z,8.30
2022-12-23T09:59:42.959Z,12.50
2022-12-23T10:02:19.689Z,13.10
2022-12-23T10:05:05.130Z,10.00
2022-12-23T10:07:37.323Z,12.70
2022-12-23T10:10:17.856Z,10.80
2022-12-23T10:12:48.642Z,12.60
2022-12-23T10:15:30.013Z,10.80
2022-12-23T10:18:02.957Z,11.30
2022-12-23T10:21:00.771Z,10.80
2022-12-23T10:23:36.504Z,12.60
2022-12-23T10:26:18.353Z,15.80
2022-12-23T10:28:47.366Z,10.50
2022-12-23T10:31:39.716Z,11.60
2022-12-23T10:34:19.756Z,13.80
2022-12-23T10:36:48.514Z,13.40
2022-12-23T10:39:23.029Z,12.70
2022-12-23T10:41:54.752Z,14.70
2022-12-23T10:44:46.137Z,15.80
2022-12-23T10:47:14.834Z,13.90
2022-12-23T10:49:49.688Z,14.60
2022-12-23T10:52:19.685Z,16.10
2022-12-23T10:54:49.368Z,16.90
2022-12-23T10:57:18.877Z,14.10
2022-12-23T10:59:47.732Z,15.00
2022-12-23T11:02:16.912Z,15.70
2022-12-23T11:04:47.202Z,16.30
2022-12-23T11:10:19.649Z,13.20
2022-12-23T11:12:50.426Z,14.40
2022-12-23T11:15:25.359Z,13.20
2022-12-23T11:18:29.378Z,20.00
2022-12-23T11:21:05.207Z,12.30
2022-12-23T11:23:36.560Z,13.30
2022-12-23T11:26:09.902Z,14.10
2022-12-23T11:31:11.806Z,11.90
2022-12-23T11:33:50.581Z,14.00
2022-12-23T11:36:23.939Z,14.70
2022-12-23T11:38:54.582Z,12.50
2022-12-23T11:41:33.899Z,17.70
2022-12-23T11:44:21.520Z,12.50
2022-12-23T11:46:50.738Z,14.10
2022-12-23T11:49:19.460Z,12.90
2022-12-23T11:51:58.779Z,13.50
2022-12-23T11:54:29.720Z,11.90
2022-12-23T11:56:59.181Z,13.50
2022-12-23T11:59:29.774Z,13.70
2022-12-23T12:02:04.017Z,14.00
2022-12-23T12:04:34.802Z,14.10
2022-12-23T12:07:04.888Z,16.00
2022-12-23T12:09:34.418Z,16.90
2022-12-23T12:12:07.661Z,15.60
2022-12-23T12:14:50.782Z,15.70
2022-12-23T12:17:25.123Z,12.60
2022-12-23T12:19:58.409Z,12.20
2022-12-23T12:22:41.497Z,12.80
2022-12-23T12:25:24.801Z,12.30
2022-12-23T12:27:56.618Z,14.70
2022-12-23T12:30:29.120Z,13.60
2022-12-23T12:33:11.897Z,12.70
2022-12-23T12:35:43.737Z,11.70
2022-12-23T12:38:24.873Z,14.30
2022-12-23T12:40:58.787Z,13.40
2022-12-23T12:43:32.162Z,13.50
2022-12-23T12:46:00.931Z,12.20
2022-12-23T12:48:46.567Z,17.50
2022-12-23T12:51:33.891Z,13.90
2022-12-23T12:54:06.963Z,14.10
2022-12-23T12:56:46.415Z,11.70
2022-12-23T12:59:17.052Z,14.30
2022-12-23T13:01:49.870Z,14.10
2022-12-23T13:04:18.661Z,12.30
2022-12-23T13:06:56.773Z,12.50
2022-12-23T13:09:41.658Z,13.90
2022-12-23T13:12:24.995Z,13.10
2022-12-23T13:14:58.497Z,14.60
2022-12-23T13:17:32.247Z,16.10
2022-12-23T13:20:10.133Z,11.20
2022-12-23T13:22:39.414Z,13.20
2022-12-23T13:25:13.448Z,14.20
2022-12-23T13:27:51.291Z,12.10
2022-12-23T13:30:23.665Z,15.40
2022-12-23T13:32:55.730Z,13.30
2022-12-23T13:35:27.154Z,12.00
2022-12-23T13:38:14.336Z,12.10
2022-12-23T13:40:49.081Z,10.90
2022-12-23T13:43:23.086Z,13.10
2022-12-23T13:45:53.509Z,11.20
2022-12-23T13:48:34.035Z,12.40
2022-12-23T13:51:05.461Z,14.00
2022-12-23T13:53:40.281Z,12.70
2022-12-23T13:56:14.173Z,10.90
2022-12-23T13:58:47.068Z,10.50
2022-12-23T14:03:44.815Z,12.80
2022-12-23T14:06:26.144Z,10.40
2022-12-23T14:08:55.657Z,9.60
2022-12-23T14:11:26.859Z,9.30
2022-12-23T14:13:58.328Z,10.20
2022-12-23T14:16:35.880Z,8.20
2022-12-23T14:19:10.743Z,9.60
2022-12-23T14:21:58.557Z,9.00
2022-12-23T14:24:36.638Z,9.30
2022-12-23T14:27:11.624Z,9.80
2022-12-23T14:29:43.413Z,17.20
2022-12-23T14:32:32.459Z,10.40
2022-12-23T14:35:24.277Z,12.80
2022-12-23T14:38:05.124Z,14.30
2022-12-23T14:40:37.066Z,13.20
2022-12-23T14:43:27.883Z,10.90
2022-12-23T14:46:05.367Z,9.70
2022-12-23T14:48:34.329Z,12.20
2022-12-23T14:51:21.109Z,10.40
2022-12-23T14:53:53.769Z,12.20
2022-12-23T14:56:27.551Z,9.00
2022-12-23T14:59:14.489Z,9.60
2022-12-23T15:01:48.002Z,10.00
2022-12-23T15:04:16.788Z,10.50
2022-12-23T15:06:47.348Z,10.70
2022-12-23T15:09:22.553Z,8.80
2022-12-23T15:11:52.164Z,10.30
2022-12-23T15:14:33.071Z,8.70
2022-12-23T15:17:28.082Z,13.20
2022-12-23T15:20:05.721Z,9.90
2022-12-23T15:22:35.437Z,10.30
2022-12-23T15:25:04.832Z,8.90
2022-12-23T15:27:35.581Z,9.50
2022-12-23T15:30:04.514Z,10.00
2022-12-23T15:32:33.315Z,9.30
2022-12-23T15:35:05.179Z,10.00
2022-12-23T15:37:34.523Z,11.60
2022-12-23T15:40:12.218Z,7.80
2022-12-23T15:42:47.032Z,9.20
2022-12-23T15:45:29.708Z,11.80
2022-12-23T15:47:58.560Z,11.10
2022-12-23T15:50:27.626Z,13.20
2022-12-23T15:53:00.040Z,9.70
2022-12-23T15:55:30.222Z,9.10
2022-12-23T15:58:00.012Z,10.60
2022-12-23T16:00:28.743Z,9.20
2022-12-23T16:03:01.062Z,9.70
2022-12-23T16:05:36.443Z,10.20
2022-12-23T16:08:08.369Z,10.30
2022-12-23T16:10:37.461Z,12.20
2022-12-23T16:13:15.847Z,11.20
2022-12-23T16:15:44.737Z,11.80
2022-12-23T16:18:19.570Z,10.60
2022-12-23T16:20:53.671Z,14.40
2022-12-23T16:23:22.647Z,10.80
2022-12-23T16:25:52.914Z,11.90
2022-12-23T16:28:24.255Z,11.20
2022-12-23T16:30:54.354Z,9.10
2022-12-23T16:33:41.363Z,12.50
2022-12-23T16:36:16.484Z,10.30
2022-12-23T16:38:45.317Z,11.50
2022-12-23T16:41:14.385Z,10.10
2022-12-23T16:43:51.225Z,11.90
2022-12-23T16:46:22.588Z,12.50
2022-12-23T16:48:52.768Z,10.30
2022-12-23T16:53:55.313Z,12.00
2022-12-23T16:56:26.856Z,13.20
2022-12-23T16:58:55.573Z,11.10
2022-12-23T17:01:26.358Z,9.70
2022-12-23T17:03:56.029Z,11.90
2022-12-23T17:06:25.424Z,10.10
2022-12-23T17:08:54.233Z,11.60
2022-12-23T17:11:25.251Z,11.80
2022-12-23T17:13:59.603Z,15.80
2022-12-23T17:16:32.551Z,10.90
2022-12-23T17:19:01.478Z,11.30
2022-12-23T17:21:32.172Z,12.20
2022-12-23T17:24:23.851Z,9.90
2022-12-23T17:26:54.536Z,13.20
2022-12-23T17:29:23.520Z,14.40
2022-12-23T17:31:52.550Z,10.80
2022-12-23T17:34:22.812Z,10.30
2022-12-23T17:36:51.734Z,13.20
2022-12-23T17:39:22.138Z,12.00
2022-12-23T17:41:51.141Z,12.50
2022-12-23T17:44:20.114Z,16.40
2022-12-23T17:46:48.848Z,11.40
2022-12-23T17:49:17.561Z,16.20
2022-12-23T17:51:46.621Z,13.10
2022-12-23T17:54:23.011Z,11.50
2022-12-23T17:56:52.837Z,14.80
2022-12-23T17:59:21.984Z,13.90
2022-12-23T18:01:51.000Z,15.00
2022-12-23T18:04:19.926Z,12.90
2022-12-23T18:06:48.672Z,16.20
2022-12-23T18:09:18.796Z,12.40
2022-12-23T18:11:47.545Z,15.00
2022-12-23T18:14:18.039Z,13.70
2022-12-23T18:16:46.877Z,15.20
2022-12-23T18:19:17.620Z,17.80
2022-12-23T18:21:46.989Z,15.80
2022-12-23T18:24:16.141Z,12.80
2022-12-23T18:26:44.979Z,16.30
2022-12-23T18:29:13.710Z,15.80
2022-12-23T18:31:50.491Z,16.60
2022-12-23T18:34:21.165Z,16.00
2022-12-23T18:36:51.738Z,16.40
2022-12-23T18:39:21.176Z,19.40
2022-12-23T18:41:50.033Z,16.50
2022-12-23T18:44:20.440Z,16.30
2022-12-23T18:46:49.551Z,17.60
2022-12-23T18:49:18.442Z,14.60
2022-12-23T18:51:47.520Z,14.80
2022-12-23T18:54:16.697Z,14.30
2022-12-23T18:56:45.517Z,17.70
2022-12-23T18:59:15.884Z,18.00
2022-12-23T19:01:44.918Z,15.70
2022-12-23T19:04:13.857Z,18.40
2022-12-23T19:06:42.559Z,16.80
2022-12-23T19:09:18.309Z,17.80
2022-12-23T19:11:47.599Z,18.10
2022-12-23T19:14:16.317Z,16.40
2022-12-23T19:16:51.264Z,21.30
2022-12-23T19:19:21.663Z,16.90
2022-12-23T19:21:50.334Z,15.80
2022-12-23T19:24:19.037Z,17.30
2022-12-23T19:26:48.671Z,15.60
2022-12-23T19:29:17.338Z,17.40
2022-12-23T19:31:46.110Z,22.10
2022-12-23T19:34:15.832Z,20.90
2022-12-23T19:36:44.920Z,17.00
2022-12-23T19:39:16.498Z,15.00
2022-12-23T19:41:45.923Z,35.40
2022-12-23T19:44:14.765Z,70.90
2022-12-23T19:46:43.561Z,53.40
2022-12-23T19:49:19.223Z,22.00
2022-12-23T19:51:49.059Z,26.90
2022-12-23T19:54:18.432Z,21.40
2022-12-23T19:56:49.919Z,16.00
2022-12-23T19:59:19.034Z,16.20
2022-12-23T20:01:47.840Z,17.50
2022-12-23T20:04:17.484Z,24.80
2022-12-23T20:06:46.229Z,16.50
2022-12-23T20:09:15.076Z,16.00
2022-12-23T20:11:47.604Z,16.20
2022-12-23T20:14:17.401Z,21.30
2022-12-23T20:16:48.284Z,22.90
2022-12-23T20:19:17.808Z,20.60
2022-12-23T20:21:46.656Z,20.40
2022-12-23T20:24:15.678Z,18.50
2022-12-23T20:26:44.420Z,23.70
2022-12-23T20:29:13.104Z,28.90
2022-12-23T20:31:41.863Z,31.20
2022-12-23T20:34:13.472Z,18.70
2022-12-23T20:36:42.433Z,15.40
2022-12-23T20:39:11.238Z,27.40
2022-12-23T20:41:39.979Z,27.90
2022-12-23T20:44:33.917Z,22.70
2022-12-23T20:46:57.424Z,17.80
2022-12-23T20:49:26.547Z,26.20
2022-12-23T20:51:55.351Z,21.70
2022-12-23T20:54:31.679Z,20.70
2022-12-23T20:57:02.703Z,16.40
2022-12-23T20:59:31.693Z,22.90
2022-12-23T21:02:00.637Z,21.50
2022-12-23T21:04:29.416Z,15.20
2022-12-23T21:06:58.107Z,13.50
2022-12-23T21:09:26.827Z,12.20
2022-12-23T21:11:55.602Z,14.30
2022-12-23T21:14:24.326Z,10.30
2022-12-23T21:16:53.175Z,9.70
2022-12-23T21:19:23.413Z,13.00
2022-12-23T21:21:52.363Z,10.10
2022-12-23T21:24:21.323Z,13.10
2022-12-23T21:26:56.120Z,13.10
2022-12-23T21:29:25.861Z,14.50
2022-12-23T21:31:55.313Z,10.60
2022-12-23T21:34:24.275Z,10.40
2022-12-23T21:36:53.095Z,10.30
2022-12-23T21:39:22.046Z,12.60
2022-12-23T21:41:51.575Z,12.60
2022-12-23T21:44:20.406Z,9.00
2022-12-23T21:46:49.862Z,10.20
2022-12-23T21:49:19.280Z,10.60
2022-12-23T21:51:47.999Z,11.80
2022-12-23T21:54:16.643Z,9.30
2022-12-23T21:56:45.357Z,9.50
2022-12-23T21:59:14.659Z,8.60
2022-12-23T22:01:43.481Z,9.00
2022-12-23T22:04:12.351Z,8.80
2022-12-23T22:06:43.702Z,8.70
2022-12-23T22:09:17.094Z,7.40
2022-12-23T22:11:48.222Z,8.60
2022-12-23T22:14:18.835Z,7.10
2022-12-23T22:16:47.692Z,7.30
2022-12-23T22:19:16.497Z,7.70
2022-12-23T22:21:45.238Z,9.10
2022-12-23T22:24:13.985Z,6.40
2022-12-23T22:26:42.701Z,7.30
2022-12-23T22:29:11.892Z,6.10
2022-12-23T22:31:43.249Z,6.00
2022-12-23T22:34:13.679Z,7.10
2022-12-23T22:36:42.673Z,11.80
2022-12-23T22:39:17.739Z,8.00
2022-12-23T22:41:49.735Z,7.90
2022-12-23T22:44:18.854Z,7.50
2022-12-23T22:46:47.890Z,7.70
2022-12-23T22:49:17.129Z,8.50
2022-12-23T22:51:46.170Z,8.00
2022-12-23T22:54:14.898Z,9.90
2022-12-23T22:56:43.989Z,6.20
2022-12-23T22:59:22.803Z,5.80
2022-12-23T23:01:52.008Z,6.70
2022-12-23T23:04:20.764Z,4.50
2022-12-23T23:06:49.617Z,6.90
2022-12-23T23:09:19.524Z,8.40
2022-12-23T23:11:49.206Z,7.70
2022-12-23T23:14:18.685Z,8.40
2022-12-23T23:16:47.914Z,6.30
2022-12-23T23:19:20.297Z,6.80
2022-12-23T23:21:49.268Z,6.50
2022-12-23T23:24:18.006Z,6.30
2022-12-23T23:26:46.787Z,7.40
2022-12-23T23:29:15.519Z,7.80
2022-12-23T23:31:44.850Z,5.70
2022-12-23T23:34:14.235Z,8.60
2022-12-23T23:36:43.141Z,8.60
2022-12-23T23:39:12.203Z,7.10
2022-12-23T23:41:41.342Z,7.60
2022-12-23T23:44:10.690Z,9.60
2022-12-23T23:46:39.898Z,6.10
2022-12-23T23:49:08.664Z,7.90
2022-12-23T23:51:37.903Z,8.10
2022-12-23T23:54:06.533Z,8.80
2022-12-23T23:56:38.707Z,10.90
